createdAt,value
2017-10-11T00:00:30.491Z,20.30
2017-10-11T00:02:59.493Z,16.77
2017-10-11T00:05:29.280Z,18.10
2017-10-11T00:07:58.298Z,16.45
2017-10-11T00:10:27.326Z,18.80
2017-10-11T00:12:57.262Z,16.60
2017-10-11T00:15:26.202Z,15.75
2017-10-11T00:17:55.444Z,18.65
2017-10-11T00:20:24.502Z,14.87
2017-10-11T00:22:53.574Z,16.08
2017-10-11T00:25:22.562Z,15.40
2017-10-11T00:27:51.576Z,16.17
2017-10-11T00:30:20.881Z,16.80
2017-10-11T00:32:49.928Z,16.35
2017-10-11T00:35:18.924Z,15.55
2017-10-11T00:37:47.915Z,14.80
2017-10-11T00:40:16.953Z,15.18
2017-10-11T00:42:46.005Z,14.32
2017-10-11T00:45:15.013Z,14.32
2017-10-11T00:47:44.010Z,15.00
2017-10-11T00:50:13.001Z,16.52
2017-10-11T00:52:42.122Z,15.55
2017-10-11T00:55:11.200Z,13.35
2017-10-11T00:57:40.324Z,13.30
2017-10-11T01:00:09.572Z,13.60
2017-10-11T01:02:38.544Z,14.48
2017-10-11T01:05:07.546Z,15.52
2017-10-11T01:07:36.508Z,12.23
2017-10-11T01:10:06.317Z,13.27
2017-10-11T01:12:35.284Z,14.32
2017-10-11T01:16:23.539Z,13.70
2017-10-11T01:18:52.498Z,14.68
2017-10-11T01:21:21.532Z,13.80
2017-10-11T01:23:50.677Z,14.68
2017-10-11T01:26:19.749Z,13.65
2017-10-11T01:28:49.659Z,15.32
2017-10-11T01:31:19.538Z,13.45
2017-10-11T01:33:48.582Z,14.25
2017-10-11T01:36:18.496Z,13.02
2017-10-11T01:38:47.652Z,14.70
2017-10-11T01:41:16.756Z,13.93
2017-10-11T01:44:48.282Z,16.20
2017-10-11T01:47:17.360Z,14.40
2017-10-11T01:49:46.392Z,16.37
2017-10-11T01:52:15.413Z,15.27
2017-10-11T01:54:45.262Z,15.70
2017-10-11T01:57:14.252Z,15.30
2017-10-11T01:59:43.294Z,16.85
2017-10-11T02:02:12.371Z,15.70
2017-10-11T02:04:41.429Z,13.62
2017-10-11T02:07:10.547Z,14.50
2017-10-11T02:09:39.594Z,13.15
2017-10-11T02:12:09.456Z,14.27
2017-10-11T02:14:38.510Z,16.87
2017-10-11T02:17:07.882Z,18.02
2017-10-11T02:19:36.846Z,13.00
2017-10-11T02:22:06.126Z,12.75
2017-10-11T02:24:35.143Z,12.80
2017-10-11T02:27:04.128Z,14.35
2017-10-11T02:29:33.169Z,14.35
2017-10-11T02:32:02.946Z,14.63
2017-10-11T02:34:31.913Z,15.57
2017-10-11T02:37:00.950Z,18.00
2017-10-11T02:39:29.918Z,17.02
2017-10-11T02:41:58.881Z,17.45
2017-10-11T02:44:28.134Z,14.85
2017-10-11T02:46:57.876Z,13.68
2017-10-11T02:49:27.679Z,15.10
2017-10-11T02:51:58.310Z,15.35
2017-10-11T02:54:28.389Z,14.45
2017-10-11T02:56:57.353Z,14.10
2017-10-11T02:59:26.300Z,13.62
2017-10-11T03:01:55.274Z,15.25
2017-10-11T03:04:24.223Z,14.20
2017-10-11T03:06:53.243Z,14.10
2017-10-11T03:09:22.236Z,18.23
2017-10-11T03:11:52.018Z,12.80
2017-10-11T03:14:21.008Z,16.98
2017-10-11T03:16:49.961Z,14.90
2017-10-11T03:19:18.996Z,12.82
2017-10-11T03:21:47.974Z,14.75
2017-10-11T03:24:17.705Z,14.40
2017-10-11T03:26:46.646Z,14.85
2017-10-11T03:29:15.682Z,13.15
2017-10-11T03:31:44.653Z,15.25
2017-10-11T03:34:14.428Z,16.90
2017-10-11T03:36:43.461Z,18.20
2017-10-11T03:39:13.279Z,14.13
2017-10-11T03:41:43.024Z,17.60
2017-10-11T03:44:12.102Z,17.30
2017-10-11T03:46:41.146Z,16.58
2017-10-11T03:49:10.121Z,15.10
2017-10-11T03:51:39.106Z,18.58
2017-10-11T03:54:08.083Z,18.08
2017-10-11T03:56:37.087Z,18.10
2017-10-11T03:59:06.071Z,18.33
2017-10-11T04:01:35.074Z,15.77
2017-10-11T04:04:04.073Z,18.37
2017-10-11T04:06:33.062Z,16.30
2017-10-11T04:09:02.154Z,17.00
2017-10-11T04:11:31.168Z,20.05
2017-10-11T04:14:00.163Z,16.75
2017-10-11T04:16:29.142Z,17.67
2017-10-11T04:18:58.191Z,17.20
2017-10-11T04:21:28.274Z,17.02
2017-10-11T04:23:58.100Z,16.00
2017-10-11T04:26:27.954Z,16.50
2017-10-11T04:28:57.852Z,20.75
2017-10-11T04:31:27.669Z,17.23
2017-10-11T04:33:56.762Z,15.38
2017-10-11T04:36:26.652Z,16.45
2017-10-11T04:38:56.483Z,17.00
2017-10-11T04:41:26.330Z,16.98
2017-10-11T04:43:55.386Z,16.42
2017-10-11T04:46:25.215Z,15.57
2017-10-11T04:48:54.271Z,17.05
2017-10-11T04:51:23.326Z,16.62
2017-10-11T04:53:52.322Z,16.02
2017-10-11T04:56:21.331Z,16.98
2017-10-11T04:58:51.138Z,19.80
2017-10-11T05:01:24.139Z,18.20
2017-10-11T05:03:53.094Z,16.42
2017-10-11T05:06:22.098Z,18.60
2017-10-11T05:08:51.089Z,15.30
2017-10-11T05:11:20.128Z,15.18
2017-10-11T05:13:49.895Z,17.48
2017-10-11T05:16:19.782Z,17.52
2017-10-11T05:18:48.803Z,17.92
2017-10-11T05:21:17.832Z,17.48
2017-10-11T05:23:46.885Z,15.90
2017-10-11T05:26:15.943Z,14.40
2017-10-11T05:28:45.691Z,15.23
2017-10-11T05:31:14.710Z,15.80
2017-10-11T05:33:43.710Z,17.75
2017-10-11T05:36:12.743Z,16.30
2017-10-11T05:38:42.508Z,16.50
2017-10-11T05:41:11.590Z,18.45
2017-10-11T05:43:40.623Z,17.35
2017-10-11T05:46:10.490Z,17.25
2017-10-11T05:48:39.501Z,20.02
2017-10-11T05:51:08.640Z,17.20
2017-10-11T05:53:37.644Z,14.38
2017-10-11T05:56:06.681Z,15.30
2017-10-11T05:58:35.692Z,14.70
2017-10-11T06:01:04.693Z,17.00
2017-10-11T06:03:34.481Z,16.58
2017-10-11T06:06:03.527Z,14.13
2017-10-11T06:08:33.294Z,18.98
2017-10-11T06:11:02.381Z,13.90
2017-10-11T06:13:31.488Z,14.25
2017-10-11T06:16:00.506Z,13.45
2017-10-11T06:18:30.388Z,15.07
2017-10-11T06:20:59.382Z,14.82
2017-10-11T06:23:28.535Z,15.18
2017-10-11T06:25:57.611Z,12.70
2017-10-11T06:28:26.572Z,15.10
2017-10-11T06:30:55.698Z,16.37
2017-10-11T06:33:25.476Z,15.40
2017-10-11T06:35:54.462Z,13.50
2017-10-11T06:38:23.644Z,13.23
2017-10-11T06:40:52.934Z,19.73
2017-10-11T06:43:22.004Z,12.88
2017-10-11T06:45:51.144Z,11.20
2017-10-11T06:48:20.221Z,12.15
2017-10-11T06:50:49.298Z,12.35
2017-10-11T06:53:19.143Z,11.52
2017-10-11T06:55:48.329Z,13.27
2017-10-11T06:58:17.421Z,13.40
2017-10-11T07:00:47.165Z,12.07
2017-10-11T07:03:16.982Z,11.90
2017-10-11T07:05:45.962Z,14.50
2017-10-11T07:08:15.017Z,11.90
2017-10-11T07:10:44.102Z,12.02
2017-10-11T07:13:13.217Z,12.20
2017-10-11T07:15:42.988Z,12.27
2017-10-11T07:18:12.765Z,12.75
2017-10-11T07:20:41.885Z,13.90
2017-10-11T07:23:11.713Z,11.55
2017-10-11T07:25:41.474Z,11.75
2017-10-11T07:28:11.812Z,11.40
2017-10-11T07:30:41.649Z,10.98
2017-10-11T07:33:11.517Z,13.60
2017-10-11T07:35:40.500Z,11.57
2017-10-11T07:38:09.470Z,11.23
2017-10-11T07:40:38.565Z,11.55
2017-10-11T07:43:07.645Z,11.43
2017-10-11T07:45:37.455Z,10.48
2017-10-11T07:48:07.298Z,11.55
2017-10-11T07:50:36.342Z,10.10
2017-10-11T07:53:05.426Z,10.32
2017-10-11T07:55:34.537Z,11.30
2017-10-11T07:58:03.603Z,10.63
2017-10-11T08:00:33.062Z,10.15
2017-10-11T08:03:02.091Z,10.30
2017-10-11T08:05:31.119Z,9.25
2017-10-11T08:08:00.193Z,10.15
2017-10-11T08:10:29.347Z,10.18
2017-10-11T08:12:59.110Z,9.07
2017-10-11T08:15:28.141Z,8.40
2017-10-11T08:17:57.938Z,9.55
2017-10-11T08:20:27.793Z,8.48
2017-10-11T08:22:57.594Z,8.07
2017-10-11T08:25:27.060Z,7.05
2017-10-11T08:27:56.885Z,6.90
2017-10-11T08:30:26.763Z,9.25
2017-10-11T08:32:55.759Z,15.25
2017-10-11T08:38:24.813Z,10.07
2017-10-11T08:40:54.716Z,6.85
2017-10-11T08:43:23.759Z,9.48
2017-10-11T08:45:52.949Z,9.60
2017-10-11T08:48:22.911Z,11.70
2017-10-11T08:50:52.006Z,11.32
2017-10-11T08:53:21.100Z,9.10
2017-10-11T08:55:50.286Z,7.28
2017-10-11T08:58:20.082Z,8.95
2017-10-11T09:00:49.306Z,12.63
2017-10-11T09:03:19.139Z,7.22
2017-10-11T09:05:48.909Z,8.43
2017-10-11T09:08:18.101Z,8.70
2017-10-11T09:10:47.126Z,11.15
2017-10-11T09:13:16.168Z,9.57
2017-10-11T09:15:45.218Z,8.32
2017-10-11T09:18:14.388Z,8.13
2017-10-11T09:20:44.202Z,12.88
2017-10-11T09:23:13.247Z,7.80
2017-10-11T09:25:42.313Z,10.05
2017-10-11T09:28:13.326Z,10.50
2017-10-11T09:30:42.568Z,7.75
2017-10-11T09:33:12.532Z,11.05
2017-10-11T09:35:41.744Z,9.68
2017-10-11T09:38:11.619Z,8.02
2017-10-11T09:40:41.430Z,11.93
2017-10-11T09:43:10.426Z,7.90
2017-10-11T09:45:40.328Z,16.27
2017-10-11T09:48:09.411Z,10.82
2017-10-11T09:50:38.458Z,11.88
2017-10-11T09:53:07.632Z,8.63
2017-10-11T09:55:36.611Z,12.80
2017-10-11T09:58:05.644Z,8.25
2017-10-11T10:00:34.711Z,10.27
2017-10-11T10:03:03.853Z,10.15
2017-10-11T10:05:32.882Z,7.12
2017-10-11T10:08:02.001Z,7.70
2017-10-11T10:10:31.828Z,7.85
2017-10-11T10:13:01.119Z,9.45
2017-10-11T10:15:30.165Z,6.95
2017-10-11T10:18:05.566Z,9.10
2017-10-11T10:20:34.616Z,7.53
2017-10-11T10:23:04.472Z,9.98
2017-10-11T10:25:34.317Z,8.98
2017-10-11T10:28:04.406Z,9.07
2017-10-11T10:30:34.421Z,8.60
2017-10-11T10:33:03.758Z,10.70
2017-10-11T10:35:33.712Z,6.93
2017-10-11T10:38:03.912Z,6.57
2017-10-11T10:40:32.997Z,7.45
2017-10-11T10:43:02.898Z,5.70
2017-10-11T10:45:32.045Z,6.68
2017-10-11T10:48:01.105Z,6.22
2017-10-11T10:50:30.824Z,7.15
2017-10-11T10:53:00.057Z,8.23
2017-10-11T10:55:29.248Z,7.15
2017-10-11T10:57:58.238Z,7.30
2017-10-11T11:00:27.335Z,8.30
2017-10-11T11:02:56.544Z,8.15
2017-10-11T11:05:25.561Z,6.20
2017-10-11T11:08:09.178Z,7.22
2017-10-11T11:10:39.019Z,7.70
2017-10-11T11:13:08.879Z,7.32
2017-10-11T11:15:39.451Z,7.93
2017-10-11T11:18:09.456Z,6.28
2017-10-11T11:20:39.248Z,8.48
2017-10-11T11:23:08.326Z,9.43
2017-10-11T11:25:38.099Z,15.02
2017-10-11T11:28:10.478Z,13.00
2017-10-11T11:30:40.432Z,7.60
2017-10-11T11:33:09.938Z,10.77
2017-10-11T11:35:39.747Z,6.75
2017-10-11T11:38:09.558Z,6.60
2017-10-11T11:40:38.593Z,5.75
2017-10-11T11:43:07.590Z,8.80
2017-10-11T11:45:37.051Z,6.18
2017-10-11T11:48:06.469Z,5.12
2017-10-11T11:50:35.444Z,7.03
2017-10-11T11:53:04.483Z,6.12
2017-10-11T11:55:33.580Z,8.50
2017-10-11T11:58:02.591Z,11.50
2017-10-11T12:00:31.669Z,6.78
2017-10-11T12:03:01.848Z,10.15
2017-10-11T12:05:30.874Z,7.80
2017-10-11T12:07:59.880Z,12.07
2017-10-11T12:10:29.678Z,7.40
2017-10-11T12:12:59.460Z,7.40
2017-10-11T12:15:28.820Z,24.02
2017-10-11T12:17:57.816Z,6.82
2017-10-11T12:20:27.691Z,16.05
2017-10-11T12:22:56.695Z,7.70
2017-10-11T12:25:25.726Z,6.90
2017-10-11T12:27:55.568Z,8.90
2017-10-11T12:30:25.422Z,8.77
2017-10-11T12:32:54.496Z,14.77
2017-10-11T12:35:23.514Z,6.53
2017-10-11T12:37:52.650Z,8.48
2017-10-11T12:40:21.657Z,9.32
2017-10-11T12:42:50.647Z,9.27
2017-10-11T12:45:19.617Z,6.50
2017-10-11T12:47:49.347Z,11.02
2017-10-11T12:50:18.399Z,7.10
2017-10-11T12:52:48.244Z,6.20
2017-10-11T12:55:18.310Z,7.25
2017-10-11T12:57:48.242Z,8.13
2017-10-11T13:00:17.275Z,6.57
2017-10-11T13:02:46.300Z,8.20
2017-10-11T13:05:15.326Z,11.90
2017-10-11T13:07:44.534Z,9.15
2017-10-11T13:10:14.545Z,7.10
2017-10-11T13:12:44.447Z,8.43
2017-10-11T13:15:14.421Z,9.10
2017-10-11T13:17:43.552Z,9.07
2017-10-11T13:20:13.660Z,7.07
2017-10-11T13:22:42.809Z,9.00
2017-10-11T13:25:11.820Z,7.00
2017-10-11T13:27:41.561Z,9.30
2017-10-11T13:30:11.384Z,8.45
2017-10-11T13:32:40.581Z,11.57
2017-10-11T13:35:10.171Z,8.40
2017-10-11T13:37:43.140Z,10.45
2017-10-11T13:40:13.007Z,10.38
2017-10-11T13:42:42.853Z,8.32
2017-10-11T13:45:12.600Z,17.67
2017-10-11T13:47:41.623Z,7.70
2017-10-11T13:50:11.395Z,7.03
2017-10-11T13:52:41.961Z,8.95
2017-10-11T13:55:11.848Z,13.48
2017-10-11T13:57:40.949Z,8.20
2017-10-11T14:00:11.156Z,10.10
2017-10-11T14:02:40.241Z,8.00
2017-10-11T14:05:10.090Z,10.65
2017-10-11T14:07:39.913Z,7.18
2017-10-11T14:10:08.911Z,12.63
2017-10-11T14:12:38.020Z,8.13
2017-10-11T14:15:07.063Z,7.87
2017-10-11T14:17:36.235Z,8.80
2017-10-11T14:20:05.261Z,9.43
2017-10-11T14:22:34.324Z,8.80
2017-10-11T14:25:03.994Z,8.75
2017-10-11T14:27:33.070Z,7.35
2017-10-11T14:30:02.093Z,9.27
2017-10-11T14:32:32.057Z,7.32
2017-10-11T14:35:01.203Z,8.00
2017-10-11T14:37:30.997Z,8.55
2017-10-11T14:40:00.319Z,6.55
2017-10-11T14:42:30.164Z,8.23
2017-10-11T14:45:05.237Z,6.60
2017-10-11T14:47:34.340Z,6.53
2017-10-11T14:50:04.016Z,6.57
2017-10-11T14:52:33.096Z,6.62
2017-10-11T14:55:02.349Z,6.45
2017-10-11T14:57:31.403Z,6.55
2017-10-11T15:00:06.393Z,9.30
2017-10-11T15:02:35.566Z,7.00
2017-10-11T15:05:05.558Z,6.87
2017-10-11T15:07:35.477Z,5.68
2017-10-11T15:10:05.257Z,5.75
2017-10-11T15:12:35.132Z,4.65
2017-10-11T15:15:04.570Z,5.28
2017-10-11T15:17:33.621Z,5.20
2017-10-11T15:20:02.700Z,4.40
2017-10-11T15:22:32.791Z,4.68
2017-10-11T15:25:02.181Z,6.70
2017-10-11T15:27:31.228Z,4.97
2017-10-11T15:30:00.992Z,5.37
2017-10-11T15:32:30.119Z,5.68
2017-10-11T15:34:59.137Z,5.20
2017-10-11T15:37:28.322Z,6.35
2017-10-11T15:40:02.691Z,6.72
2017-10-11T15:42:32.501Z,6.70
2017-10-11T15:45:01.518Z,6.65
2017-10-11T15:47:31.318Z,5.82
2017-10-11T15:50:00.318Z,6.40
2017-10-11T15:52:29.519Z,5.80
2017-10-11T15:54:58.653Z,6.37
2017-10-11T15:57:27.669Z,6.07
2017-10-11T15:59:57.570Z,5.53
2017-10-11T16:02:27.537Z,6.00
2017-10-11T16:04:56.628Z,6.40
2017-10-11T16:07:25.769Z,5.60
2017-10-11T16:09:55.787Z,5.68
2017-10-11T16:12:24.881Z,6.25
2017-10-11T16:14:54.798Z,7.50
2017-10-11T16:17:24.675Z,5.93
2017-10-11T16:19:53.718Z,6.07
2017-10-11T16:22:23.482Z,5.65
2017-10-11T16:24:52.501Z,5.32
2017-10-11T16:27:22.408Z,6.05
2017-10-11T16:29:51.412Z,6.60
2017-10-11T16:32:22.662Z,6.95
2017-10-11T16:34:53.787Z,5.82
2017-10-11T16:37:22.863Z,5.80
2017-10-11T16:39:52.211Z,7.85
2017-10-11T16:42:22.340Z,6.47
2017-10-11T16:44:52.120Z,6.45
2017-10-11T16:47:21.134Z,5.78
2017-10-11T16:49:50.996Z,5.97
2017-10-11T16:52:20.771Z,5.50
2017-10-11T16:54:49.874Z,5.55
2017-10-11T16:57:19.073Z,5.55
2017-10-11T16:59:51.023Z,6.30
2017-10-11T17:02:20.074Z,6.22
2017-10-11T17:04:49.345Z,5.28
2017-10-11T17:07:18.821Z,6.20
2017-10-11T17:09:51.746Z,5.43
2017-10-11T17:12:20.966Z,9.85
2017-10-11T17:14:50.062Z,7.87
2017-10-11T17:17:19.204Z,5.50
2017-10-11T17:19:48.994Z,6.50
2017-10-11T17:22:18.892Z,8.00
2017-10-11T17:24:48.301Z,6.75
2017-10-11T17:27:18.046Z,7.18
2017-10-11T17:29:47.945Z,6.85
2017-10-11T17:32:17.807Z,5.30
2017-10-11T17:34:47.691Z,4.90
2017-10-11T17:37:16.784Z,5.57
2017-10-11T17:39:45.975Z,6.75
2017-10-11T17:42:16.228Z,6.97
2017-10-11T17:44:45.361Z,5.87
2017-10-11T17:47:16.082Z,6.20
2017-10-11T17:49:48.279Z,8.52
2017-10-11T17:52:18.278Z,5.65
2017-10-11T17:54:47.853Z,5.62
2017-10-11T17:57:17.836Z,7.87
2017-10-11T17:59:47.528Z,5.50
2017-10-11T18:02:17.506Z,5.85
2017-10-11T18:04:46.573Z,5.78
2017-10-11T18:07:15.647Z,5.47
2017-10-11T18:09:45.546Z,7.50
2017-10-11T18:12:15.444Z,5.50
2017-10-11T18:14:49.901Z,9.00
2017-10-11T18:17:18.974Z,5.37
2017-10-11T18:19:49.072Z,6.40
2017-10-11T18:22:18.234Z,6.85
2017-10-11T18:24:48.204Z,5.50
2017-10-11T18:27:17.308Z,5.15
2017-10-11T18:29:47.067Z,5.28
2017-10-11T18:32:16.282Z,5.40
2017-10-11T18:34:45.244Z,5.62
2017-10-11T18:37:14.740Z,5.80
2017-10-11T18:39:45.413Z,5.97
2017-10-11T18:42:15.391Z,5.35
2017-10-11T18:44:44.492Z,5.78
2017-10-11T18:47:14.041Z,5.10
2017-10-11T18:49:43.070Z,6.35
2017-10-11T18:52:12.201Z,6.57
2017-10-11T18:54:41.862Z,6.00
2017-10-11T18:57:11.622Z,6.78
2017-10-11T18:59:40.810Z,5.50
2017-10-11T19:02:10.642Z,6.10
2017-10-11T19:04:40.477Z,4.90
2017-10-11T19:07:10.060Z,5.20
2017-10-11T19:09:39.353Z,6.43
2017-10-11T19:12:08.962Z,7.70
2017-10-11T19:14:40.746Z,5.37
2017-10-11T19:17:10.506Z,8.15
2017-10-11T19:19:39.582Z,5.50
2017-10-11T19:22:09.985Z,4.80
2017-10-11T19:24:40.722Z,5.55
2017-10-11T19:27:09.809Z,5.65
2017-10-11T19:29:39.386Z,5.57
2017-10-11T19:32:08.797Z,5.18
2017-10-11T19:34:38.006Z,4.70
2017-10-11T19:37:07.597Z,4.93
2017-10-11T19:39:37.505Z,4.87
2017-10-11T19:42:16.075Z,4.68
2017-10-11T19:44:47.180Z,7.30
2017-10-11T19:47:17.892Z,4.60
2017-10-11T19:49:48.133Z,5.43
2017-10-11T19:52:17.483Z,4.57
2017-10-11T19:54:47.980Z,5.85
2017-10-11T19:57:17.847Z,8.93
2017-10-11T19:59:47.845Z,6.55
2017-10-11T20:02:17.770Z,8.95
2017-10-11T20:04:51.457Z,7.62
2017-10-11T20:07:29.199Z,5.10
2017-10-11T20:09:58.630Z,4.93
2017-10-11T20:12:27.835Z,5.97
2017-10-11T20:14:57.139Z,5.60
2017-10-11T20:17:27.355Z,5.70
2017-10-11T20:19:57.778Z,5.82
2017-10-11T20:22:26.911Z,5.07
2017-10-11T20:24:56.078Z,6.60
2017-10-11T20:27:25.469Z,20.90
2017-10-11T20:29:54.472Z,5.45
2017-10-11T20:32:24.242Z,5.25
2017-10-11T20:34:53.247Z,4.85
2017-10-11T20:37:22.283Z,5.57
2017-10-11T20:39:52.036Z,5.25
2017-10-11T20:42:21.098Z,5.03
2017-10-11T20:44:50.239Z,4.85
2017-10-11T20:47:20.551Z,5.15
2017-10-11T20:49:49.808Z,5.28
2017-10-11T20:52:18.842Z,6.00
2017-10-11T20:54:47.911Z,6.10
2017-10-11T20:57:16.980Z,5.75
2017-10-11T20:59:46.781Z,5.90
2017-10-11T21:02:16.564Z,6.40
2017-10-11T21:04:45.545Z,7.20
2017-10-11T21:07:21.212Z,4.82
2017-10-11T21:09:50.194Z,4.95
2017-10-11T21:12:19.345Z,6.53
2017-10-11T21:14:49.376Z,4.93
2017-10-11T21:17:19.170Z,4.65
2017-10-11T21:19:48.994Z,6.20
2017-10-11T21:22:18.809Z,6.40
2017-10-11T21:24:47.926Z,5.53
2017-10-11T21:27:17.032Z,6.55
2017-10-11T21:29:46.024Z,7.32
2017-10-11T21:32:15.093Z,4.82
2017-10-11T21:34:44.074Z,4.90
2017-10-11T21:37:13.807Z,4.20
2017-10-11T21:39:58.914Z,4.65
2017-10-11T21:42:27.947Z,5.10
2017-10-11T21:44:57.828Z,5.22
2017-10-11T21:47:27.032Z,6.03
2017-10-11T21:49:56.038Z,4.47
2017-10-11T21:52:25.870Z,3.92
2017-10-11T21:54:54.870Z,9.05
2017-10-11T21:57:23.863Z,7.30
2017-10-11T21:59:52.815Z,5.10
2017-10-11T22:02:21.828Z,4.65
2017-10-11T22:04:51.613Z,5.65
2017-10-11T22:07:20.685Z,6.75
2017-10-11T22:09:49.724Z,3.95
2017-10-11T22:12:19.576Z,3.85
2017-10-11T22:14:48.598Z,4.68
2017-10-11T22:17:17.642Z,6.25
2017-10-11T22:19:47.454Z,3.80
2017-10-11T22:22:17.301Z,4.07
2017-10-11T22:24:47.092Z,4.35
2017-10-11T22:27:16.107Z,5.55
2017-10-11T22:29:45.955Z,3.92
2017-10-11T22:32:15.764Z,7.07
2017-10-11T22:34:44.709Z,5.12
2017-10-11T22:37:13.744Z,4.97
2017-10-11T22:39:43.053Z,4.75
2017-10-11T22:42:12.034Z,4.97
2017-10-11T22:44:42.795Z,4.80
2017-10-11T22:47:12.547Z,4.70
2017-10-11T22:49:41.663Z,5.25
2017-10-11T22:52:10.726Z,5.10
2017-10-11T22:54:39.820Z,5.50
2017-10-11T22:57:09.585Z,4.87
2017-10-11T22:59:38.670Z,5.43
2017-10-11T23:02:07.974Z,4.75
2017-10-11T23:04:37.012Z,4.70
2017-10-11T23:07:05.966Z,5.25
2017-10-11T23:09:34.942Z,6.40
2017-10-11T23:12:03.981Z,4.97
2017-10-11T23:14:33.725Z,5.18
2017-10-11T23:17:02.742Z,5.53
2017-10-11T23:19:31.815Z,5.05
2017-10-11T23:22:00.838Z,5.15
2017-10-11T23:24:29.853Z,4.60
2017-10-11T23:26:58.918Z,4.65
2017-10-11T23:29:27.909Z,6.18
2017-10-11T23:31:56.880Z,4.40
2017-10-11T23:34:25.856Z,6.47
2017-10-11T23:36:54.824Z,6.18
2017-10-11T23:39:24.582Z,5.25
2017-10-11T23:41:53.593Z,5.93
2017-10-11T23:44:22.571Z,7.55
2017-10-11T23:46:51.636Z,4.37
2017-10-11T23:49:20.657Z,9.60
2017-10-11T23:51:49.964Z,5.55
2017-10-11T23:54:18.990Z,5.30
2017-10-11T23:56:47.984Z,4.60
2017-10-11T23:59:17.758Z,4.93
